Time;durP1;ratioP1;P1;durP2;ratioP2;P2;SDS_P1;SDS_P2;PMS_P1;PMS_P2;Temp;Humidity;BMP_temperature;BMP_pressure;BME280_temperature;BME280_humidity;BME280_pressure;Samples;Min_cycle;Max_cycle;Signal;HPM_P1;HPM_P2
2023/08/06 08:07:53;;;;;;;2.20;0.70;;;;;;;13.38;94.79;95796.25;2084170;28;20569;-64
2023/08/06 08:10:03;;;;;;;1.20;0.50;;;;;;;13.39;93.89;95788.31;2081123;27;21074;-66
2023/08/06 08:19:42;;;;;;;1.00;0.50;;;;;;;13.53;93.24;95779.47;2078494;28;21114;-65
2023/08/06 08:21:57;;;;;;;1.20;0.50;;;;;;;13.69;93.59;95794.13;2108795;27;20563;-64
2023/08/06 08:24:10;;;;;;;3.67;1.42;;;;;;;13.74;93.19;95780.66;2100051;27;20547;-66
2023/08/06 08:25:11;;;;;;;3.88;0.70;;;;;;;13.66;92.28;95789.94;2090092;28;20895;-66
2023/08/06 08:26:13;;;;;;;1.45;0.65;;;;;;;13.67;93.28;95786.34;2087519;28;20192;-66
2023/08/06 08:27:14;;;;;;;1.98;0.60;;;;;;;13.87;93.21;95787.53;2086750;28;20200;-66
2023/08/06 08:28:16;;;;;;;1.00;0.50;;;;;;;13.84;92.01;95790.41;2085124;28;20251;-66
2023/08/06 08:30:25;;;;;;;1.73;0.57;;;;;;;13.67;92.05;95780.25;2091418;28;20565;-64
2023/08/06 08:32:44;;;;;;;3.88;1.50;;;;;;;13.64;92.20;95776.06;2100870;27;20553;-66
2023/08/06 08:33:45;;;;;;;2.65;1.55;;;;;;;13.68;91.79;95788.03;2099795;28;20198;-66
2023/08/06 08:35:55;;;;;;;2.22;0.60;;;;;;;13.64;91.93;95783.94;2093529;27;21073;-64
2023/08/06 08:36:58;;;;;;;4.45;0.60;;;;;;;13.62;91.32;95790.25;2089502;28;20242;-64
2023/08/06 08:39:16;;;;;;;1.75;0.60;;;;;;;13.54;93.91;95783.75;2099166;27;20589;-63
2023/08/06 08:53:21;;;;;;;1.00;0.50;;;;;;;13.33;98.57;95787.84;2084547;28;20569;-67
2023/08/06 08:55:37;;;;;;;1.30;0.70;;;;;;;13.33;96.98;95783.44;2100197;27;20929;-66
2023/08/06 08:56:39;;;;;;;1.20;0.50;;;;;;;13.27;96.26;95794.34;2096165;28;20203;-67
2023/08/06 08:57:41;;;;;;;1.10;0.50;;;;;;;13.33;96.40;95788.69;2094901;28;20196;-67
2023/08/06 08:58:42;;;;;;;2.55;0.60;;;;;;;13.50;96.38;95795.41;2095486;28;20294;-66
2023/08/06 08:59:44;;;;;;;1.67;0.50;;;;;;;13.52;95.22;95795.28;2083399;28;20304;-66
2023/08/06 09:00:49;;;;;;;3.15;0.50;;;;;;;13.54;94.90;95791.63;2078347;28;20196;-67
2023/08/06 09:01:53;;;;;;;1.00;0.50;;;;;;;13.59;94.92;95788.69;2078535;28;20223;-67
2023/08/06 09:05:30;;;;;;;1.10;0.50;;;;;;;13.60;94.27;95792.97;2084983;28;20577;-67
2023/08/06 09:07:51;;;;;;;1.30;0.60;;;;;;;13.46;94.62;95791.31;2100160;27;20552;-67
2023/08/06 09:10:11;;;;;;;1.58;0.55;;;;;;;13.51;95.57;95793.59;2085627;28;20558;-64
2023/08/06 09:25:54;;;;;;;1.00;0.50;;;;;;;13.94;93.57;95815.97;2103976;27;20549;-66
2023/08/06 09:28:12;;;;;;;1.00;0.55;;;;;;;13.93;91.19;95817.78;2101558;27;20578;-66
2023/08/06 09:30:33;;;;;;;1.00;0.50;;;;;;;13.87;91.26;95819.03;2083727;28;21079;-66
2023/08/06 09:32:59;;;;;;;1.63;0.60;;;;;;;13.86;91.43;95824.41;2084812;28;20563;-64
2023/08/06 09:35:21;;;;;;;1.10;0.60;;;;;;;13.69;91.43;95817.72;2082937;28;21093;-64
2023/08/06 09:37:39;;;;;;;1.00;0.50;;;;;;;13.74;92.20;95820.88;2101190;27;20559;-65
2023/08/06 09:40:00;;;;;;;1.52;0.60;;;;;;;13.68;91.46;95816.06;2082172;27;20621;-66
2023/08/06 09:47:57;;;;;;;1.95;0.50;;;;;;;13.46;93.41;95822.78;2083934;28;21483;-69
2023/08/06 09:53:12;;;;;;;1.85;0.60;;;;;;;13.32;94.41;95831.59;2084188;28;20547;-67
2023/08/06 09:54:15;;;;;;;1.10;0.55;;;;;;;13.36;94.43;95826.97;2078686;28;20574;-68
2023/08/06 09:55:28;;;;;;;1.10;0.50;;;;;;;13.47;94.87;95834.09;2069870;28;20474;-69
2023/08/06 09:56:32;;;;;;;1.00;0.50;;;;;;;13.48;94.65;95831.38;2072561;28;20202;-69
2023/08/06 09:57:34;;;;;;;1.33;0.65;;;;;;;13.39;93.52;95827.63;2071123;28;20554;-68
2023/08/06 09:58:36;;;;;;;1.50;0.60;;;;;;;13.42;94.25;95813.47;2073142;28;20203;-68
2023/08/06 09:59:39;;;;;;;2.55;0.50;;;;;;;13.62;95.87;95834.84;2074007;28;20233;-69
2023/08/06 10:11:42;;;;;;;2.47;0.60;;;;;;;13.14;98.69;95830.19;2085797;28;20548;-69
2023/08/06 10:12:48;;;;;;;1.15;0.60;;;;;;;13.18;98.13;95844.78;2083083;28;20255;-67
2023/08/06 10:13:56;;;;;;;1.25;0.75;;;;;;;13.23;98.58;95838.28;2084424;28;20207;-68
2023/08/06 10:15:01;;;;;;;1.10;0.60;;;;;;;13.21;96.62;95827.06;2078019;28;20228;-68
2023/08/06 10:16:04;;;;;;;1.30;0.50;;;;;;;13.33;96.80;95832.41;2080392;28;20280;-68
2023/08/06 10:17:08;;;;;;;1.23;0.57;;;;;;;13.51;97.26;95838.19;2079027;28;20201;-68
2023/08/06 10:18:11;;;;;;;1.30;0.60;;;;;;;13.57;96.40;95836.94;2079874;28;20193;-68
2023/08/06 10:21:09;;;;;;;1.23;0.50;;;;;;;13.59;95.87;95842.94;2085199;28;20564;-67
2023/08/06 10:22:12;;;;;;;1.10;0.52;;;;;;;13.53;94.55;95852.06;2088643;28;20273;-68
2023/08/06 10:23:14;;;;;;;1.20;0.50;;;;;;;13.45;94.93;95826.34;2085784;28;20671;-68
2023/08/06 10:24:16;;;;;;;2.00;0.50;;;;;;;13.62;95.82;95850.56;2079797;28;20194;-70
2023/08/06 10:25:17;;;;;;;3.72;0.60;;;;;;;13.55;94.15;95850.16;2074255;28;20251;-69
2023/08/06 10:26:19;;;;;;;1.10;0.57;;;;;;;13.57;94.26;95850.06;2075209;28;20824;-69
2023/08/06 10:27:54;;;;;;;1.10;0.60;;;;;;;13.55;94.69;95842.31;2072596;28;20690;-69
2023/08/06 10:28:57;;;;;;;1.00;0.50;;;;;;;13.54;95.26;95851.94;2066141;28;20203;-69
2023/08/06 10:40:20;;;;;;;1.30;0.50;;;;;;;13.23;93.94;95876.78;2099420;27;20552;-69
2023/08/06 11:09:01;;;;;;;3.67;0.98;;;;;;;12.47;96.66;95909.69;2084038;28;20558;-68
2023/08/06 11:10:07;;;;;;;2.17;0.80;;;;;;;12.66;96.93;95904.97;2083617;28;20226;-68
2023/08/06 11:11:13;;;;;;;2.10;0.98;;;;;;;12.72;95.49;95898.47;2082815;28;20198;-68
2023/08/06 11:12:18;;;;;;;3.67;1.25;;;;;;;12.88;95.79;95903.56;2082655;28;20211;-68
2023/08/06 11:13:24;;;;;;;3.92;0.90;;;;;;;12.86;94.82;95908.03;2081765;28;20239;-68
2023/08/06 11:14:25;;;;;;;1.67;0.90;;;;;;;13.02;94.57;95903.47;2088934;28;21783;-68
2023/08/06 11:15:27;;;;;;;2.65;1.02;;;;;;;13.24;95.48;95904.66;2091199;28;20206;-69
2023/08/06 12:00:42;;;;;;;3.08;1.52;;;;;;;12.13;94.72;95957.16;2098419;27;20950;-66
2023/08/06 12:14:32;;;;;;;4.65;1.58;;;;;;;12.45;93.34;95974.41;2101112;27;20566;-67
2023/08/06 12:15:34;;;;;;;3.13;1.55;;;;;;;12.56;92.40;95972.78;2094531;28;20194;-67
2023/08/06 12:16:36;;;;;;;2.97;1.67;;;;;;;12.60;92.22;95977.84;2093754;28;20197;-67
2023/08/06 12:18:45;;;;;;;5.00;1.80;;;;;;;12.69;91.73;95991.19;2099818;27;20572;-65
2023/08/06 12:19:47;;;;;;;2.85;1.42;;;;;;;12.60;90.59;95983.91;2091946;28;20215;-67
2023/08/06 12:20:49;;;;;;;9.13;1.67;;;;;;;12.69;90.53;95979.88;2089716;28;20202;-67
2023/08/06 12:21:50;;;;;;;3.00;1.63;;;;;;;12.76;89.67;95968.06;2090179;28;20622;-67
2023/08/06 12:22:52;;;;;;;3.63;1.63;;;;;;;12.83;89.50;95966.72;2089339;28;20191;-67
2023/08/06 12:23:53;;;;;;;4.32;1.90;;;;;;;12.99;90.16;95977.06;2089545;28;20211;-67
2023/08/06 12:24:54;;;;;;;2.28;1.23;;;;;;;13.22;89.90;95978.16;2096544;28;20223;-67
2023/08/06 12:25:56;;;;;;;3.35;1.10;;;;;;;13.15;87.90;95979.50;2095445;28;20651;-67
2023/08/06 12:26:58;;;;;;;4.53;1.20;;;;;;;13.20;87.85;95977.44;2097772;28;20251;-68
2023/08/06 12:27:59;;;;;;;14.68;1.55;;;;;;;13.05;87.17;95973.19;2095462;28;20202;-67
2023/08/06 12:29:01;;;;;;;4.57;1.30;;;;;;;13.21;88.02;95975.66;2095747;28;20199;-67
2023/08/06 12:30:03;;;;;;;2.92;1.05;;;;;;;13.45;87.87;95980.25;2099917;28;20302;-67
2023/08/06 12:31:05;;;;;;;2.85;1.30;;;;;;;13.63;87.10;95981.63;2101513;28;20595;-70
2023/08/06 12:32:06;;;;;;;4.10;1.50;;;;;;;13.62;86.17;95979.13;2100940;28;20199;-67
2023/08/06 12:33:08;;;;;;;4.32;1.60;;;;;;;13.72;85.42;95972.28;2100154;28;20840;-67
2023/08/06 12:34:09;;;;;;;2.55;1.20;;;;;;;13.68;85.08;95981.31;2098969;28;20843;-67
2023/08/06 12:35:11;;;;;;;4.05;2.40;;;;;;;13.58;85.35;95985.50;2099434;28;20212;-65
2023/08/06 12:36:12;;;;;;;5.70;1.95;;;;;;;13.58;85.61;95977.66;2098928;28;20203;-65
2023/08/06 12:37:14;;;;;;;7.65;3.80;;;;;;;13.53;85.03;95968.31;2095408;28;20741;-64
2023/08/06 12:38:15;;;;;;;13.43;6.70;;;;;;;13.56;85.90;95985.63;2096629;28;20221;-67
2023/08/06 12:39:17;;;;;;;2.60;1.00;;;;;;;13.52;85.50;95990.22;2099214;28;20202;-67
2023/08/06 12:40:18;;;;;;;1.80;0.93;;;;;;;13.44;85.23;95989.88;2099601;28;20187;-67
2023/08/06 12:41:35;;;;;;;5.38;1.42;;;;;;;13.42;85.70;95990.94;2098731;28;20720;-67
2023/08/06 12:42:37;;;;;;;3.60;1.00;;;;;;;13.36;86.07;95998.25;2098669;28;20302;-67
2023/08/06 12:43:38;;;;;;;3.45;1.17;;;;;;;13.55;85.67;95999.69;2099853;28;20281;-67
2023/08/06 12:44:40;;;;;;;1.60;0.90;;;;;;;13.53;85.17;95989.28;2099448;28;20639;-67
2023/08/06 12:48:39;;;;;;;2.05;1.00;;;;;;;13.67;85.25;95998.84;2084212;28;20580;-67
2023/08/06 12:49:41;;;;;;;2.97;1.10;;;;;;;13.74;84.39;95993.19;2072669;28;20302;-68
2023/08/06 12:50:42;;;;;;;7.05;1.20;;;;;;;13.88;84.10;95993.09;2070133;28;20198;-67
2023/08/06 12:51:44;;;;;;;3.58;1.27;;;;;;;14.00;83.96;95991.41;2069862;28;20197;-68
2023/08/06 12:52:45;;;;;;;2.60;1.10;;;;;;;13.87;83.29;95994.03;2069672;28;20255;-67
2023/08/06 12:53:47;;;;;;;8.13;1.10;;;;;;;13.84;83.64;95992.47;2068187;28;20203;-67
2023/08/06 12:54:48;;;;;;;4.82;1.20;;;;;;;14.03;83.85;95992.03;2066606;28;20222;-67
2023/08/06 12:55:50;;;;;;;6.13;1.10;;;;;;;14.12;83.38;95994.97;2070145;28;20204;-67
2023/08/06 12:56:51;;;;;;;2.80;1.33;;;;;;;14.13;82.65;95988.75;2073661;28;20772;-67
2023/08/06 12:57:53;;;;;;;3.55;1.10;;;;;;;14.28;82.46;95990.31;2071129;28;20201;-68
2023/08/06 12:58:59;;;;;;;3.20;1.00;;;;;;;14.45;81.82;95996.16;2069443;28;20556;-68
2023/08/06 13:00:01;;;;;;;4.15;1.25;;;;;;;14.42;81.41;95984.09;2071131;28;20688;-68
2023/08/06 13:01:03;;;;;;;3.00;1.20;;;;;;;14.40;81.11;95990.41;2068234;28;20648;-67
2023/08/06 13:02:04;;;;;;;1.40;0.80;;;;;;;14.36;80.88;95988.00;2071459;28;20228;-68
2023/08/06 13:03:06;;;;;;;2.60;1.10;;;;;;;14.59;81.13;95989.94;2067857;28;20228;-67
2023/08/06 13:04:07;;;;;;;6.38;1.30;;;;;;;14.59;80.52;95990.78;2067738;28;20252;-67
2023/08/06 13:05:23;;;;;;;3.30;1.08;;;;;;;14.43;80.52;95996.28;2071056;28;20196;-68
2023/08/06 13:06:24;;;;;;;3.30;1.10;;;;;;;14.25;80.98;95992.34;2069494;28;20212;-68
2023/08/06 13:07:26;;;;;;;6.47;1.20;;;;;;;14.25;81.54;96003.69;2066811;28;20567;-68
2023/08/06 13:08:27;;;;;;;9.63;1.05;;;;;;;14.39;81.62;95996.63;2069842;28;20220;-68
2023/08/06 13:09:29;;;;;;;2.00;1.02;;;;;;;14.37;81.83;96000.19;2067991;28;20214;-68
2023/08/06 13:10:33;;;;;;;2.85;1.00;;;;;;;14.36;82.15;96002.94;2067522;28;20252;-68
2023/08/06 13:11:37;;;;;;;2.40;1.10;;;;;;;14.31;81.33;95995.38;2066124;28;20337;-67
2023/08/06 13:12:39;;;;;;;4.15;1.00;;;;;;;14.20;81.31;96006.59;2071192;28;20197;-67
2023/08/06 13:13:40;;;;;;;2.50;0.80;;;;;;;14.07;81.74;96011.03;2072545;28;20193;-68
2023/08/06 13:14:42;;;;;;;3.03;1.20;;;;;;;13.98;82.43;96006.41;2069731;28;20221;-67
2023/08/06 13:15:43;;;;;;;1.50;0.80;;;;;;;14.04;82.53;96022.59;2070234;28;20543;-67
2023/08/06 13:17:43;;;;;;;1.65;0.95;;;;;;;13.80;82.47;96021.63;2083476;27;20560;-67
2023/08/06 13:32:22;;;;;;;1.20;0.68;;;;;;;13.39;85.28;96029.56;2090263;28;20563;-67
2023/08/06 13:37:00;;;;;;;1.90;0.90;;;;;;;13.55;84.53;96037.22;2102524;27;20563;-68
2023/08/06 13:38:05;;;;;;;2.10;0.77;;;;;;;13.71;84.87;96031.81;2096796;28;20206;-68
2023/08/06 13:39:06;;;;;;;1.67;0.70;;;;;;;13.72;83.97;96043.13;2094389;28;20199;-68
2023/08/06 13:40:08;;;;;;;1.90;0.95;;;;;;;13.84;83.20;96034.44;2087428;28;20196;-67
2023/08/06 13:41:10;;;;;;;2.03;0.73;;;;;;;13.90;82.11;96042.84;2093002;28;20196;-67
2023/08/06 13:42:11;;;;;;;2.95;1.00;;;;;;;13.93;81.72;96035.63;2091679;28;20195;-67
2023/08/06 13:43:13;;;;;;;1.63;0.80;;;;;;;14.07;81.85;96039.06;2089226;28;20603;-67
2023/08/06 13:44:14;;;;;;;2.95;0.77;;;;;;;14.17;81.67;96038.34;2086121;28;20204;-67
2023/08/06 13:45:16;;;;;;;2.10;0.80;;;;;;;14.24;81.01;96044.00;2082357;28;20208;-67
2023/08/06 13:46:19;;;;;;;1.55;0.80;;;;;;;14.12;81.53;96027.31;2082694;28;20288;-67
2023/08/06 13:47:21;;;;;;;2.08;0.80;;;;;;;14.00;81.20;96036.84;2093186;28;20202;-67
2023/08/06 13:48:23;;;;;;;2.40;0.93;;;;;;;14.12;81.46;96027.31;2087901;28;20203;-67
2023/08/06 13:49:24;;;;;;;5.93;1.08;;;;;;;14.31;81.86;96033.91;2087308;28;20302;-68
2023/08/06 13:50:26;;;;;;;2.20;1.00;;;;;;;14.21;80.88;96037.19;2086165;28;20757;-67
2023/08/06 13:51:28;;;;;;;4.30;0.88;;;;;;;14.06;80.88;96047.91;2084405;28;20232;-68
2023/08/06 13:52:30;;;;;;;2.65;0.75;;;;;;;13.92;80.99;96039.19;2083544;28;20234;-67
2023/08/06 13:53:31;;;;;;;1.33;0.70;;;;;;;14.01;81.43;96051.66;2091034;28;20196;-68
2023/08/06 13:54:32;;;;;;;5.68;0.90;;;;;;;13.96;81.39;96039.81;2087761;28;20216;-67
2023/08/06 13:55:34;;;;;;;3.33;0.80;;;;;;;13.81;82.94;96050.38;2088317;28;20207;-68
2023/08/06 13:56:37;;;;;;;2.95;0.98;;;;;;;14.01;84.36;96050.84;2087071;28;20219;-70
2023/08/06 13:57:39;;;;;;;1.98;0.80;;;;;;;14.20;83.67;96046.00;2088992;28;20223;-68
2023/08/06 13:58:40;;;;;;;4.15;0.80;;;;;;;14.48;83.83;96043.25;2091084;28;20204;-68
2023/08/06 13:59:43;;;;;;;1.40;0.70;;;;;;;14.87;82.66;96036.16;2089649;28;20312;-67
2023/08/06 14:00:46;;;;;;;1.35;0.77;;;;;;;15.54;80.73;96044.50;2088107;28;20884;-69
2023/08/06 14:01:47;;;;;;;2.30;1.00;;;;;;;15.69;78.41;96035.44;2090547;28;20200;-68
2023/08/06 14:02:53;;;;;;;2.13;0.88;;;;;;;15.78;77.83;96041.81;2088942;28;20204;-68
2023/08/06 14:03:54;;;;;;;2.60;0.93;;;;;;;15.62;78.69;96039.50;2087640;28;20192;-68
2023/08/06 14:04:56;;;;;;;2.22;1.05;;;;;;;15.93;78.62;96034.59;2089358;28;20219;-69
2023/08/06 14:05:58;;;;;;;2.03;0.70;;;;;;;16.54;77.20;96041.34;2088130;28;20188;-69
2023/08/06 14:06:59;;;;;;;4.80;0.80;;;;;;;17.12;76.27;96038.56;2088131;28;20656;-69
2023/08/06 14:08:01;;;;;;;1.20;0.70;;;;;;;16.33;74.74;96045.53;2089882;28;20201;-68
2023/08/06 14:09:02;;;;;;;2.30;0.70;;;;;;;15.95;75.89;96046.69;2097155;28;20257;-69
2023/08/06 14:10:04;;;;;;;1.70;0.90;;;;;;;15.70;77.68;96050.28;2096774;28;20241;-67
2023/08/06 14:11:06;;;;;;;5.53;1.08;;;;;;;15.42;77.23;96041.00;2087551;28;20208;-68
2023/08/06 14:12:08;;;;;;;2.05;0.90;;;;;;;15.50;78.40;96055.25;2085994;28;20196;-66
2023/08/06 14:13:10;;;;;;;3.63;0.77;;;;;;;15.40;77.35;96041.09;2087726;28;20204;-67
2023/08/06 14:14:11;;;;;;;2.97;0.88;;;;;;;15.34;77.52;96052.91;2086483;28;20814;-66
2023/08/06 14:15:13;;;;;;;1.50;0.73;;;;;;;15.26;78.13;96051.78;2086677;28;20675;-66
2023/08/06 14:16:14;;;;;;;3.40;0.90;;;;;;;15.29;78.29;96054.22;2085193;28;20245;-68
2023/08/06 14:17:16;;;;;;;1.90;0.80;;;;;;;15.39;78.03;96054.34;2086250;28;20217;-67
2023/08/06 14:18:17;;;;;;;3.45;1.13;;;;;;;15.29;77.26;96048.94;2087344;28;20593;-67
2023/08/06 14:31:29;;;;;;;3.60;0.93;;;;;;;14.13;81.54;96089.38;2091620;27;20908;-65
2023/08/06 14:32:30;;;;;;;2.97;1.10;;;;;;;14.21;81.80;96097.56;2089254;28;20197;-67
2023/08/06 14:33:35;;;;;;;3.17;1.00;;;;;;;14.21;81.80;96086.25;2090463;28;20193;-68
2023/08/06 14:47:51;;;;;;;3.28;0.98;;;;;;;12.79;93.49;96127.69;2084187;28;21054;-66
2023/08/06 14:48:52;;;;;;;1.65;0.85;;;;;;;12.94;92.97;96115.41;2081625;28;20642;-68
2023/08/06 14:49:54;;;;;;;2.22;1.05;;;;;;;13.03;90.94;96112.19;2074092;28;20621;-68
2023/08/06 14:50:55;;;;;;;1.45;0.73;;;;;;;13.30;91.12;96118.41;2072584;28;20238;-68
2023/08/06 14:51:59;;;;;;;1.92;1.00;;;;;;;13.66;90.42;96111.75;2074056;28;20200;-67
2023/08/06 14:53:02;;;;;;;3.92;1.15;;;;;;;13.86;90.96;96110.44;2072627;28;20614;-67
2023/08/06 14:54:05;;;;;;;4.35;0.80;;;;;;;13.87;88.27;96120.00;2073859;28;20213;-68
2023/08/06 14:55:07;;;;;;;1.95;0.85;;;;;;;14.46;86.57;96113.44;2074690;28;20251;-67
2023/08/06 14:56:09;;;;;;;2.10;0.73;;;;;;;14.79;83.76;96122.59;2074630;28;20209;-67
2023/08/06 14:57:10;;;;;;;2.10;0.90;;;;;;;14.86;82.81;96121.22;2074707;28;20201;-67
2023/08/06 14:58:12;;;;;;;2.17;0.95;;;;;;;15.03;82.21;96109.50;2075731;28;20734;-67
2023/08/06 14:59:13;;;;;;;4.30;0.80;;;;;;;15.00;82.20;96091.31;2073274;28;20704;-68
2023/08/06 15:00:15;;;;;;;3.17;0.90;;;;;;;15.08;81.08;96125.78;2070966;28;20199;-68
2023/08/06 15:01:16;;;;;;;1.98;0.88;;;;;;;15.15;80.06;96121.78;2073648;28;20674;-67
2023/08/06 15:02:18;;;;;;;2.95;0.75;;;;;;;15.61;79.25;96117.59;2074911;28;20211;-68
2023/08/06 15:03:19;;;;;;;5.13;0.90;;;;;;;16.40;78.22;96114.41;2075916;28;20197;-68
2023/08/06 15:04:23;;;;;;;4.85;0.80;;;;;;;16.84;75.93;96119.00;2074060;28;20621;-68
2023/08/06 15:05:25;;;;;;;2.75;0.95;;;;;;;16.30;75.04;96127.47;2073269;28;20193;-67
2023/08/06 15:06:26;;;;;;;3.90;0.98;;;;;;;16.13;75.07;96125.25;2073594;28;20197;-67
2023/08/06 15:07:30;;;;;;;2.75;0.75;;;;;;;15.85;77.64;96123.84;2073131;28;20274;-68
2023/08/06 15:08:32;;;;;;;2.13;0.73;;;;;;;15.43;78.06;96124.22;2074324;28;20193;-67
2023/08/06 15:09:33;;;;;;;3.30;0.80;;;;;;;15.07;77.84;96123.28;2072587;28;20605;-68
2023/08/06 15:10:55;;;;;;;1.92;0.90;;;;;;;14.79;78.52;96120.81;2074295;28;20205;-68
2023/08/06 15:11:56;;;;;;;2.10;1.00;;;;;;;14.86;78.41;96127.31;2075769;28;20206;-68
2023/08/06 15:12:59;;;;;;;1.83;0.90;;;;;;;14.91;77.80;96127.00;2070773;28;21182;-67
2023/08/06 15:14:00;;;;;;;1.50;0.80;;;;;;;15.10;77.96;96131.78;2075615;28;20645;-68
2023/08/06 15:15:02;;;;;;;2.05;0.77;;;;;;;15.80;77.15;96127.63;2074609;28;20218;-68
2023/08/06 15:16:04;;;;;;;2.40;0.70;;;;;;;15.42;75.79;96127.81;2075390;28;20228;-67
2023/08/06 15:17:05;;;;;;;2.50;0.90;;;;;;;15.48;76.78;96135.25;2070786;28;20202;-68
2023/08/06 15:18:07;;;;;;;1.90;0.88;;;;;;;15.24;76.45;96136.06;2071596;28;20749;-67
2023/08/06 15:19:08;;;;;;;2.40;0.80;;;;;;;15.12;77.58;96129.03;2072686;28;20277;-67
2023/08/06 15:20:10;;;;;;;1.92;0.75;;;;;;;15.22;77.17;96135.31;2074252;28;20232;-68
2023/08/06 15:21:11;;;;;;;1.65;0.80;;;;;;;15.04;77.61;96144.53;2075085;28;20232;-68
2023/08/06 15:22:13;;;;;;;5.32;1.00;;;;;;;14.89;77.76;96134.13;2070682;28;20253;-68
2023/08/06 15:23:15;;;;;;;4.50;0.77;;;;;;;14.86;78.68;96137.00;2071171;28;20853;-67
2023/08/06 15:24:17;;;;;;;4.35;0.90;;;;;;;14.75;79.18;96134.25;2071979;28;20284;-67
2023/08/06 15:25:18;;;;;;;2.33;0.82;;;;;;;14.67;79.66;96134.81;2073967;28;20205;-68
2023/08/06 15:26:20;;;;;;;5.70;0.80;;;;;;;14.53;80.23;96139.19;2074508;28;20205;-68
2023/08/06 15:27:22;;;;;;;1.65;0.70;;;;;;;14.47;79.99;96141.38;2081594;28;20246;-67
2023/08/06 15:28:23;;;;;;;2.55;0.82;;;;;;;14.56;80.75;96132.03;2080240;28;20296;-67
2023/08/06 15:29:25;;;;;;;2.67;0.80;;;;;;;14.37;80.21;96139.41;2069686;28;20205;-68
2023/08/06 15:30:26;;;;;;;2.80;1.10;;;;;;;14.46;79.59;96137.06;2074947;28;20198;-67
2023/08/06 15:31:37;;;;;;;2.35;0.90;;;;;;;14.40;82.29;96137.50;2073082;28;20201;-67
2023/08/06 15:32:44;;;;;;;2.80;0.80;;;;;;;14.34;82.75;96144.84;2073042;28;20198;-68
2023/08/06 15:34:36;;;;;;;7.80;0.82;;;;;;;14.21;83.41;96157.97;2083771;28;20907;-68
2023/08/06 15:35:38;;;;;;;1.85;0.80;;;;;;;14.17;81.87;96130.25;2083590;28;20200;-67
2023/08/06 15:36:39;;;;;;;1.70;1.00;;;;;;;14.41;83.47;96133.91;2081172;28;20232;-69
2023/08/06 15:37:41;;;;;;;3.67;1.00;;;;;;;14.12;83.77;96142.84;2075590;28;20208;-68
2023/08/06 15:38:42;;;;;;;2.10;0.90;;;;;;;13.93;84.89;96137.13;2081248;28;20873;-67
2023/08/06 15:47:01;;;;;;;3.85;1.00;;;;;;;13.48;88.33;96145.28;2101650;27;20579;-68
2023/08/06 15:48:03;;;;;;;2.08;1.02;;;;;;;13.55;87.59;96154.44;2097543;28;20536;-69
2023/08/06 15:49:05;;;;;;;7.30;0.98;;;;;;;13.66;87.76;96157.22;2097580;28;20226;-68
2023/08/06 15:50:08;;;;;;;7.80;1.00;;;;;;;13.92;86.54;96157.28;2086451;28;20212;-69
2023/08/06 15:51:09;;;;;;;3.45;0.93;;;;;;;14.09;85.63;96157.94;2088384;28;20495;-69
2023/08/06 15:52:11;;;;;;;2.45;0.80;;;;;;;14.16;86.44;96160.06;2085284;28;20253;-68
2023/08/06 15:53:12;;;;;;;2.40;0.90;;;;;;;14.26;86.70;96160.28;2088316;28;20873;-68
2023/08/06 15:54:14;;;;;;;1.75;0.90;;;;;;;14.25;85.54;96157.78;2087287;28;20200;-68
2023/08/06 15:55:15;;;;;;;4.43;1.10;;;;;;;14.10;86.61;96159.63;2080616;28;20200;-69
2023/08/06 15:56:17;;;;;;;2.53;1.00;;;;;;;14.09;86.60;96164.03;2078988;28;20201;-68
2023/08/06 15:57:18;;;;;;;2.50;1.10;;;;;;;14.25;87.23;96163.84;2079153;28;20198;-69
2023/08/06 15:58:20;;;;;;;2.40;1.00;;;;;;;14.41;85.04;96163.69;2081601;28;20224;-68
2023/08/06 15:59:28;;;;;;;4.15;1.00;;;;;;;14.07;84.01;96168.56;2081920;28;20201;-68
2023/08/06 16:00:30;;;;;;;4.53;0.90;;;;;;;13.88;84.83;96180.25;2081835;28;20778;-68
2023/08/06 16:01:31;;;;;;;2.13;0.90;;;;;;;14.03;85.92;96159.22;2079593;28;20258;-68
2023/08/06 16:02:33;;;;;;;5.78;1.20;;;;;;;13.95;85.19;96166.72;2078900;28;20200;-68
2023/08/06 16:03:34;;;;;;;4.60;1.77;;;;;;;14.05;86.20;96154.69;2082288;28;20642;-68
2023/08/06 16:17:37;;;;;;;1.70;0.80;;;;;;;12.74;89.08;96185.59;2108795;27;21326;-67
2023/08/06 16:18:38;;;;;;;5.57;1.25;;;;;;;12.76;90.21;96180.28;2106747;28;20229;-68
2023/08/06 16:19:40;;;;;;;1.80;0.90;;;;;;;12.70;90.47;96193.75;2101126;27;20224;-68
2023/08/06 16:20:43;;;;;;;4.35;1.23;;;;;;;12.67;91.16;96192.16;2097886;28;20198;-69
2023/08/06 16:21:44;;;;;;;4.85;1.20;;;;;;;12.78;90.89;96198.53;2095821;28;20199;-69
2023/08/06 16:22:46;;;;;;;4.28;1.40;;;;;;;12.93;90.83;96205.44;2096228;28;20231;-68
2023/08/06 16:23:47;;;;;;;3.28;1.10;;;;;;;12.91;89.15;96196.81;2095828;28;20195;-67
2023/08/06 16:24:49;;;;;;;2.40;0.90;;;;;;;12.90;89.17;96188.13;2097304;28;20219;-67
2023/08/06 16:25:50;;;;;;;1.80;0.80;;;;;;;13.00;88.54;96198.03;2100102;28;20203;-68
2023/08/06 16:26:52;;;;;;;1.80;1.00;;;;;;;12.97;88.19;96200.84;2099526;28;20196;-67
2023/08/06 16:27:54;;;;;;;4.80;1.15;;;;;;;13.00;88.00;96204.13;2099679;28;20191;-68
